64  °F
Temperature
18  °C
Temperature
8  °C
 Dewpoint
46  °F
  Dewpoint
52  %
 Humidity
  Temperature
14  mph
Wind Speed
12  kts
Wind Speed
23  km/h
Wind Speed
6.3  m/s
Wind Speed
190°
Due South

Wind Speed
Partly Cloudy
Conditions
Pressure 30.07 (inHG) - 1018.3 (mb)
Visibility 10.0 (mi) - 16.1 (km)

Sky Conditions
KNUQ
Location Moffett Federal Afld 2.5 mi (4.02 km)
Metar :KNUQ 252156Z 19012G18KT 10SM FEW060 OVC100 18/08 A3007 RMK AO2 SLP183 T01830083 $
Mon 25th March 14:56 pm

Nearest Airport
https://www.checkwx.com/weather/KNUQ
  Metar Aviation API Data Provided by https://www.checkwx.com/ Original CSS/SVG/PHP scripts by weather34.com © 2015-2019